Time;durP1;ratioP1;P1;durP2;ratioP2;P2;SDS_P1;SDS_P2;PMS_P1;PMS_P2;Temp;Humidity;BMP_temperature;BMP_pressure;BME280_temperature;BME280_humidity;BME280_pressure;Samples;Min_cycle;Max_cycle;Signal;HPM_P1;HPM_P2
2023/09/25 00:00:32;;;;;;;15.50;4.93;;;;;;;22.05;59.72;94656.81;4163022;28;20132;-68
2023/09/25 00:02:34;;;;;;;18.05;5.20;;;;;;;22.03;59.86;94661.56;4161471;28;20578;-68
2023/09/25 00:04:36;;;;;;;13.43;4.82;;;;;;;22.03;59.71;94664.22;4168857;28;20045;-70
2023/09/25 00:06:37;;;;;;;12.95;5.00;;;;;;;21.92;59.99;94662.34;4161086;28;20123;-69
2023/09/25 00:08:39;;;;;;;14.73;4.93;;;;;;;21.90;60.29;94659.91;4169355;28;20056;-69
2023/09/25 00:10:41;;;;;;;11.48;4.60;;;;;;;21.91;59.80;94658.88;4148652;28;20099;-68
2023/09/25 00:12:44;;;;;;;11.80;4.50;;;;;;;21.92;59.33;94665.00;4162691;28;20085;-69
2023/09/25 00:14:46;;;;;;;11.70;4.75;;;;;;;21.95;58.93;94661.91;4164239;28;20080;-68
2023/09/25 00:16:48;;;;;;;11.70;4.82;;;;;;;21.93;59.26;94663.97;4162135;28;20045;-69
2023/09/25 00:18:51;;;;;;;14.38;5.10;;;;;;;21.87;59.09;94660.38;4161686;28;20041;-68
2023/09/25 00:20:54;;;;;;;11.52;4.45;;;;;;;21.89;59.25;94656.41;4167247;28;20047;-68
2023/09/25 00:22:56;;;;;;;12.40;4.70;;;;;;;21.93;58.90;94662.13;4164787;28;20048;-69
2023/09/25 00:24:58;;;;;;;12.40;4.88;;;;;;;21.92;58.74;94659.66;4172724;28;20151;-69
2023/09/25 00:26:59;;;;;;;15.38;4.80;;;;;;;21.84;59.48;94656.31;4170102;28;20052;-68
2023/09/25 00:29:01;;;;;;;14.20;4.72;;;;;;;21.76;60.16;94653.16;4152499;28;20056;-68
2023/09/25 00:31:03;;;;;;;13.93;4.53;;;;;;;21.72;60.31;94654.66;4162794;28;20498;-68
2023/09/25 00:33:05;;;;;;;16.80;4.63;;;;;;;21.63;60.62;94657.66;4152904;28;20060;-68
2023/09/25 00:35:10;;;;;;;20.38;4.93;;;;;;;21.62;60.51;94658.72;4153007;28;20503;-68
2023/09/25 00:37:12;;;;;;;11.02;4.90;;;;;;;21.52;60.67;94658.44;4146530;28;20053;-69
2023/09/25 00:39:13;;;;;;;14.30;5.15;;;;;;;21.47;60.84;94655.66;4160586;28;20050;-69
2023/09/25 00:41:15;;;;;;;15.15;4.72;;;;;;;21.40;61.28;94660.22;4155608;28;20049;-68
2023/09/25 00:43:17;;;;;;;12.82;5.18;;;;;;;21.36;61.27;94667.06;4161777;28;20546;-68
2023/09/25 00:45:20;;;;;;;10.70;5.18;;;;;;;21.40;61.56;94663.72;4160654;28;20056;-69
2023/09/25 00:47:22;;;;;;;15.23;5.35;;;;;;;21.44;61.25;94669.44;4156992;28;20587;-68
2023/09/25 00:49:24;;;;;;;14.68;4.93;;;;;;;21.45;61.11;94666.53;4160030;28;20050;-70
2023/09/25 00:51:26;;;;;;;16.35;5.20;;;;;;;21.24;61.69;94670.50;4164171;28;20111;-69
2023/09/25 00:53:29;;;;;;;18.00;5.13;;;;;;;21.09;62.03;94675.41;4161804;28;20435;-67
2023/09/25 00:55:31;;;;;;;17.67;5.20;;;;;;;21.06;62.25;94673.22;4158239;28;20488;-68
2023/09/25 00:57:40;;;;;;;14.63;5.57;;;;;;;21.13;62.00;94673.94;4155719;28;20053;-68
2023/09/25 00:59:42;;;;;;;10.23;5.03;;;;;;;21.06;62.24;94665.22;4159072;28;20156;-69
2023/09/25 01:01:44;;;;;;;12.77;5.65;;;;;;;21.02;62.51;94674.69;4161926;28;20100;-68
2023/09/25 01:03:45;;;;;;;18.05;5.28;;;;;;;20.95;62.38;94671.28;4160976;28;20046;-69
2023/09/25 01:05:48;;;;;;;13.77;4.88;;;;;;;20.78;62.91;94660.44;4164419;28;20053;-68
2023/09/25 01:07:50;;;;;;;10.20;4.70;;;;;;;20.84;62.85;94660.38;4165654;28;20103;-69
2023/09/25 01:10:14;;;;;;;14.77;5.05;;;;;;;20.86;62.96;94663.63;4161714;28;20107;-69
2023/09/25 01:12:17;;;;;;;10.40;5.18;;;;;;;20.90;62.58;94671.97;4153134;28;20061;-69
2023/09/25 01:14:18;;;;;;;14.27;5.38;;;;;;;20.94;62.64;94667.00;4162049;28;20120;-69
2023/09/25 01:16:22;;;;;;;14.68;5.40;;;;;;;20.98;62.44;94668.19;4164743;28;20132;-67
2023/09/25 01:18:23;;;;;;;8.38;5.45;;;;;;;21.06;62.42;94679.34;4165568;28;20045;-67
2023/09/25 01:20:25;;;;;;;16.73;5.28;;;;;;;21.12;62.01;94677.63;4161415;28;20049;-68
2023/09/25 01:22:28;;;;;;;13.23;5.70;;;;;;;21.12;62.12;94672.28;4172682;28;20048;-69
2023/09/25 01:24:30;;;;;;;16.55;4.60;;;;;;;21.09;62.49;94669.28;4176998;28;20073;-68
2023/09/25 01:26:32;;;;;;;20.15;4.78;;;;;;;21.10;62.35;94677.06;4170671;28;20496;-68
2023/09/25 01:28:35;;;;;;;15.52;5.40;;;;;;;21.06;62.31;94675.88;4160260;28;20133;-68
2023/09/25 01:30:38;;;;;;;14.88;5.30;;;;;;;20.97;62.75;94678.03;4158984;28;20049;-69
2023/09/25 01:32:44;;;;;;;13.57;4.78;;;;;;;20.97;62.61;94677.19;4163009;28;20072;-69
2023/09/25 01:34:46;;;;;;;11.52;4.82;;;;;;;20.88;62.80;94681.22;4168445;28;20040;-68
2023/09/25 01:36:48;;;;;;;11.30;5.03;;;;;;;20.88;62.82;94678.56;4163592;28;20463;-69
2023/09/25 01:38:50;;;;;;;11.88;4.95;;;;;;;20.90;62.98;94681.81;4160669;28;20119;-69
2023/09/25 01:40:51;;;;;;;13.18;4.82;;;;;;;20.92;62.78;94690.38;4161527;28;20072;-68
2023/09/25 01:42:53;;;;;;;6.43;4.40;;;;;;;20.92;62.61;94685.06;4161849;28;20053;-68
2023/09/25 01:44:55;;;;;;;10.00;5.28;;;;;;;20.85;62.49;94679.81;4168059;28;20484;-68
2023/09/25 01:46:58;;;;;;;9.77;5.18;;;;;;;20.90;62.21;94684.47;4163799;28;20154;-70
2023/09/25 01:49:00;;;;;;;12.48;5.43;;;;;;;20.87;62.11;94683.06;4158875;28;20120;-68
2023/09/25 01:51:12;;;;;;;11.57;4.60;;;;;;;20.88;61.92;94673.22;4153797;28;20045;-68
2023/09/25 01:53:13;;;;;;;10.85;4.90;;;;;;;20.89;61.57;94680.16;4173206;28;20049;-68
2023/09/25 01:55:15;;;;;;;11.55;5.30;;;;;;;20.84;61.82;94673.69;4152987;28;20189;-67
2023/09/25 01:57:17;;;;;;;9.77;5.13;;;;;;;20.85;61.54;94677.16;4157022;28;20052;-69
2023/09/25 01:59:19;;;;;;;12.98;4.85;;;;;;;20.84;61.82;94679.00;4169205;28;20053;-69
2023/09/25 02:01:21;;;;;;;16.13;5.20;;;;;;;20.83;61.49;94677.38;4173850;28;20056;-69
2023/09/25 02:03:24;;;;;;;12.00;4.97;;;;;;;20.85;60.97;94685.94;4162830;28;20049;-69
2023/09/25 02:05:26;;;;;;;10.30;4.20;;;;;;;20.88;60.22;94682.03;4152976;28;20416;-69
2023/09/25 02:07:28;;;;;;;9.73;5.05;;;;;;;20.92;60.32;94685.88;4160080;28;20053;-68
2023/09/25 02:09:30;;;;;;;13.35;4.40;;;;;;;20.94;60.28;94691.78;4167872;28;20073;-69
2023/09/25 02:11:32;;;;;;;10.45;4.72;;;;;;;20.94;60.23;94697.09;4162744;28;20088;-68
2023/09/25 02:13:34;;;;;;;12.13;4.28;;;;;;;20.93;59.71;94689.34;4158143;28;20084;-68
2023/09/25 02:15:37;;;;;;;13.73;5.10;;;;;;;20.91;59.64;94700.22;4152222;28;20109;-69
2023/09/25 02:17:39;;;;;;;10.18;4.60;;;;;;;20.86;60.05;94700.91;4160564;28;20080;-68
2023/09/25 02:19:41;;;;;;;12.45;4.78;;;;;;;20.78;60.27;94698.53;4167676;28;20143;-67
2023/09/25 02:21:42;;;;;;;8.52;4.55;;;;;;;20.80;60.40;94703.63;4153693;28;20397;-68
2023/09/25 02:23:44;;;;;;;6.75;4.20;;;;;;;20.77;60.60;94699.56;4149633;28;20057;-68
2023/09/25 02:25:46;;;;;;;11.88;4.35;;;;;;;20.74;60.57;94710.66;4165589;28;20128;-67
2023/09/25 02:27:48;;;;;;;10.90;4.60;;;;;;;20.72;60.78;94706.59;4155944;28;20049;-67
2023/09/25 02:29:50;;;;;;;7.38;4.32;;;;;;;20.59;60.41;94704.88;4158567;28;20061;-67
2023/09/25 02:31:52;;;;;;;11.10;4.70;;;;;;;20.49;60.42;94707.22;4160530;28;20057;-66
2023/09/25 02:33:53;;;;;;;10.55;4.93;;;;;;;20.45;60.69;94709.50;4157570;28;20272;-67
2023/09/25 02:36:03;;;;;;;8.55;4.50;;;;;;;20.44;60.81;94711.34;4154506;28;20551;-69
2023/09/25 02:38:06;;;;;;;10.32;4.30;;;;;;;20.52;60.79;94710.25;4160468;28;20056;-68
2023/09/25 02:40:17;;;;;;;9.43;4.45;;;;;;;20.51;60.59;94705.13;4161350;28;20049;-66
2023/09/25 02:42:19;;;;;;;10.57;4.80;;;;;;;20.38;61.20;94720.19;4156303;28;20053;-68
2023/09/25 02:44:21;;;;;;;9.20;4.25;;;;;;;20.28;61.71;94721.72;4162054;28;20061;-68
2023/09/25 02:46:43;;;;;;;11.02;4.30;;;;;;;20.27;61.76;94723.59;4161619;28;20508;-68
2023/09/25 02:48:45;;;;;;;9.68;4.50;;;;;;;20.26;61.46;94727.25;4157405;28;20049;-67
2023/09/25 02:50:48;;;;;;;8.27;4.43;;;;;;;20.29;61.17;94718.84;4160675;28;20430;-69
2023/09/25 02:52:51;;;;;;;11.18;4.22;;;;;;;20.32;61.18;94722.91;4150188;28;20077;-68
2023/09/25 02:54:54;;;;;;;8.20;4.38;;;;;;;20.24;61.42;94724.00;4159535;28;20049;-68
2023/09/25 02:56:56;;;;;;;10.40;4.78;;;;;;;20.22;61.47;94726.91;4161862;28;20145;-68
2023/09/25 02:58:57;;;;;;;5.80;4.20;;;;;;;20.22;61.40;94729.56;4148822;28;20058;-68
2023/09/25 03:01:00;;;;;;;10.82;5.53;;;;;;;20.24;61.22;94729.31;4174082;28;20132;-68
2023/09/25 03:03:02;;;;;;;7.43;5.07;;;;;;;20.22;61.34;94728.75;4169185;28;20412;-69
2023/09/25 03:05:05;;;;;;;11.32;5.05;;;;;;;20.21;61.55;94733.22;4170669;28;20044;-67
2023/09/25 03:07:07;;;;;;;;;;;;;;;20.18;61.41;94727.56;4161004;28;20455;-69
2023/09/25 03:09:09;;;;;;;10.13;5.07;;;;;;;20.18;61.83;94730.22;4162272;28;19924;-68
2023/09/25 03:11:11;;;;;;;11.20;5.20;;;;;;;20.27;61.70;94731.56;4166977;28;20126;-70
2023/09/25 03:13:13;;;;;;;9.93;5.97;;;;;;;20.32;61.35;94739.69;4167529;28;20049;-67
2023/09/25 03:15:15;;;;;;;13.93;5.68;;;;;;;20.26;61.32;94729.91;4170257;28;20128;-68
2023/09/25 03:17:22;;;;;;;10.48;5.72;;;;;;;20.24;61.33;94734.63;4154907;28;20049;-68
2023/09/25 03:19:24;;;;;;;9.27;6.10;;;;;;;20.21;61.65;94746.53;4167757;28;20124;-68
2023/09/25 03:21:27;;;;;;;12.57;5.85;;;;;;;20.20;61.68;94749.44;4162235;28;20128;-67
2023/09/25 03:23:29;;;;;;;11.43;6.50;;;;;;;20.12;61.72;94752.34;4166764;28;20136;-68
2023/09/25 03:25:37;;;;;;;12.85;6.60;;;;;;;20.13;61.67;94756.63;4161820;28;20043;-69
2023/09/25 03:27:39;;;;;;;8.57;6.28;;;;;;;20.10;60.99;94757.06;4155065;28;20241;-69
2023/09/25 03:29:41;;;;;;;9.73;6.38;;;;;;;20.12;60.98;94749.69;4161072;28;20057;-69
2023/09/25 03:31:42;;;;;;;9.68;6.28;;;;;;;20.11;61.25;94756.03;4157039;28;20114;-67
2023/09/25 03:33:48;;;;;;;10.70;6.97;;;;;;;20.14;61.30;94753.75;4155283;28;20049;-68
2023/09/25 03:35:50;;;;;;;14.30;6.00;;;;;;;19.98;61.34;94749.81;4152928;28;20056;-67
2023/09/25 03:37:54;;;;;;;12.93;6.80;;;;;;;19.99;61.70;94759.41;4163255;28;20053;-67
2023/09/25 03:39:57;;;;;;;10.30;6.78;;;;;;;20.08;61.42;94761.78;4157695;28;20052;-68
2023/09/25 03:41:59;;;;;;;11.80;6.68;;;;;;;20.12;61.30;94758.47;4165488;28;20054;-70
2023/09/25 03:44:01;;;;;;;10.55;7.25;;;;;;;20.14;60.73;94755.63;4166489;28;20128;-69
2023/09/25 03:46:03;;;;;;;12.75;7.40;;;;;;;20.08;61.15;94759.94;4162967;28;20050;-67
2023/09/25 03:48:05;;;;;;;11.18;8.40;;;;;;;20.00;61.25;94762.88;4162814;28;20163;-69
2023/09/25 03:50:08;;;;;;;14.88;8.60;;;;;;;20.00;61.73;94762.88;4169919;28;20049;-67
2023/09/25 03:52:10;;;;;;;18.85;9.32;;;;;;;19.84;62.27;94766.88;4152609;28;20085;-68
2023/09/25 03:54:11;;;;;;;16.80;9.77;;;;;;;19.95;62.17;94768.84;4163332;28;20561;-68
2023/09/25 03:56:13;;;;;;;16.23;9.38;;;;;;;20.02;62.02;94760.81;4164092;28;20050;-70
2023/09/25 03:58:15;;;;;;;15.90;10.77;;;;;;;20.07;61.95;94762.81;4157581;28;20104;-69
2023/09/25 04:00:17;;;;;;;14.35;10.45;;;;;;;20.07;62.20;94762.81;4164388;28;20134;-69
2023/09/25 04:02:19;;;;;;;16.50;11.38;;;;;;;20.04;62.51;94762.22;4158175;28;20041;-69
2023/09/25 04:04:21;;;;;;;18.15;11.80;;;;;;;19.92;62.96;94761.31;4162143;28;20112;-70
2023/09/25 04:06:23;;;;;;;17.10;12.23;;;;;;;19.89;63.41;94760.91;4160416;28;20510;-70
2023/09/25 04:08:25;;;;;;;14.95;12.63;;;;;;;19.78;64.07;94773.03;4162438;28;20115;-69
2023/09/25 04:10:27;;;;;;;16.65;12.63;;;;;;;19.71;64.50;94774.94;4167825;28;20045;-72
2023/09/25 04:12:29;;;;;;;15.50;12.93;;;;;;;19.61;64.86;94770.84;4162714;28;20049;-72
2023/09/25 04:14:35;;;;;;;18.13;13.50;;;;;;;19.58;65.41;94771.28;4169329;28;20093;-71
2023/09/25 04:16:38;;;;;;;15.80;12.45;;;;;;;19.52;65.45;94766.00;4168980;28;20045;-71
2023/09/25 04:18:42;;;;;;;15.10;12.00;;;;;;;19.48;65.63;94778.09;4164397;28;20053;-70
2023/09/25 04:20:45;;;;;;;17.25;12.35;;;;;;;19.43;65.82;94776.88;4170149;28;20050;-69
2023/09/25 04:22:47;;;;;;;19.08;12.95;;;;;;;19.48;65.91;94781.56;4163443;28;20489;-72
2023/09/25 04:24:49;;;;;;;15.38;11.60;;;;;;;19.54;65.80;94777.25;4162121;28;20516;-68
2023/09/25 04:26:53;;;;;;;20.42;12.35;;;;;;;19.60;65.74;94781.72;4164828;28;20068;-70
2023/09/25 04:28:55;;;;;;;19.40;12.57;;;;;;;19.65;65.70;94777.38;4162742;28;20049;-70
2023/09/25 04:30:59;;;;;;;18.17;12.70;;;;;;;19.55;65.76;94786.84;4162955;28;20059;-71
2023/09/25 04:33:01;;;;;;;;;;;;;;;19.62;65.55;94774.34;4160113;28;20071;-70
2023/09/25 04:35:07;;;;;;;17.30;13.35;;;;;;;19.47;66.43;94782.59;4162671;28;19922;-69
2023/09/25 04:37:09;;;;;;;21.05;14.13;;;;;;;19.45;66.50;94787.31;4163579;28;20413;-71
2023/09/25 04:39:12;;;;;;;17.25;13.38;;;;;;;19.43;66.82;94790.16;4165712;28;20135;-68
2023/09/25 04:41:13;;;;;;;15.77;11.88;;;;;;;19.44;66.59;94785.66;4163242;28;20046;-70
2023/09/25 04:43:17;;;;;;;13.93;11.02;;;;;;;19.39;66.69;94788.94;4162617;28;20472;-69
2023/09/25 04:45:19;;;;;;;18.15;10.88;;;;;;;19.31;67.25;94785.72;4164333;28;20041;-71
2023/09/25 04:47:21;;;;;;;16.98;10.82;;;;;;;19.28;67.32;94791.47;4158818;28;20424;-72
2023/09/25 04:49:23;;;;;;;14.18;11.05;;;;;;;19.21;67.55;94786.19;4160393;28;20045;-70
2023/09/25 04:51:25;;;;;;;18.88;10.13;;;;;;;19.23;67.51;94794.75;4155120;28;20473;-69
2023/09/25 04:53:27;;;;;;;17.90;11.52;;;;;;;19.22;67.62;94796.59;4161096;28;20096;-70
2023/09/25 04:55:30;;;;;;;14.50;10.38;;;;;;;19.21;67.57;94802.94;4156037;28;20045;-71
2023/09/25 04:57:32;;;;;;;18.10;12.25;;;;;;;19.27;67.53;94798.59;4162404;28;20045;-69
2023/09/25 04:59:33;;;;;;;16.65;11.38;;;;;;;19.29;67.27;94798.41;4165352;28;20049;-69
2023/09/25 05:01:35;;;;;;;19.48;11.95;;;;;;;19.20;67.47;94798.63;4155197;28;20088;-69
2023/09/25 05:03:38;;;;;;;16.63;12.02;;;;;;;19.05;68.00;94799.91;4155546;28;20050;-72
2023/09/25 05:05:42;;;;;;;16.80;12.05;;;;;;;18.86;69.01;94796.28;4165204;28;20471;-71
2023/09/25 05:07:45;;;;;;;20.33;12.20;;;;;;;18.66;70.02;94794.47;4155713;28;20419;-69
2023/09/25 05:09:46;;;;;;;20.58;13.90;;;;;;;18.52;70.66;94798.13;4168155;28;20042;-69
2023/09/25 05:11:48;;;;;;;20.85;13.73;;;;;;;18.50;71.01;94798.38;4157552;28;20062;-71
2023/09/25 05:13:50;;;;;;;18.90;14.13;;;;;;;18.42;71.30;94796.72;4151884;28;20393;-71
2023/09/25 05:15:52;;;;;;;22.10;14.27;;;;;;;18.44;71.63;94812.44;4158753;28;20054;-69
2023/09/25 05:17:55;;;;;;;17.15;12.65;;;;;;;18.42;71.59;94803.88;4155061;28;20523;-71
2023/09/25 05:19:59;;;;;;;20.05;13.98;;;;;;;18.47;71.68;94805.91;4170669;28;20052;-69
2023/09/25 05:22:01;;;;;;;16.20;14.40;;;;;;;18.39;71.85;94817.53;4163551;28;20045;-69
2023/09/25 05:24:02;;;;;;;15.93;13.40;;;;;;;18.35;71.87;94811.03;4175008;28;20061;-69
2023/09/25 05:26:04;;;;;;;21.55;14.55;;;;;;;18.31;72.26;94813.28;4159880;28;20048;-69
2023/09/25 05:28:07;;;;;;;20.65;14.60;;;;;;;18.36;72.05;94813.47;4152892;28;20081;-70
2023/09/25 05:30:10;;;;;;;17.83;13.38;;;;;;;18.50;71.51;94816.09;4152905;28;20120;-69
2023/09/25 05:32:12;;;;;;;17.88;13.18;;;;;;;18.59;70.99;94817.53;4160571;28;20061;-72
2023/09/25 05:34:14;;;;;;;19.85;13.35;;;;;;;18.51;71.18;94825.72;4161035;28;20068;-69
2023/09/25 05:36:16;;;;;;;15.60;12.57;;;;;;;18.55;71.08;94830.38;4166644;28;20042;-70
2023/09/25 05:38:17;;;;;;;19.05;12.13;;;;;;;18.63;70.73;94832.84;4166224;28;20056;-70
2023/09/25 05:40:19;;;;;;;18.63;11.77;;;;;;;18.74;69.94;94831.41;4171029;28;20130;-70
2023/09/25 05:42:21;;;;;;;18.77;11.95;;;;;;;18.86;69.61;94836.91;4163524;28;20061;-71
2023/09/25 05:44:23;;;;;;;16.00;11.40;;;;;;;18.85;69.23;94835.28;4162223;28;20088;-70
2023/09/25 05:46:25;;;;;;;16.35;11.77;;;;;;;18.90;69.12;94842.63;4162313;28;20069;-70
2023/09/25 05:48:27;;;;;;;16.08;10.60;;;;;;;18.94;69.00;94844.66;4159942;28;20064;-70
2023/09/25 05:50:33;;;;;;;13.43;11.27;;;;;;;18.97;69.01;94848.72;4163268;28;20120;-72
2023/09/25 05:52:39;;;;;;;15.85;10.70;;;;;;;19.01;68.79;94847.31;4154752;28;20054;-72
2023/09/25 05:54:41;;;;;;;15.55;12.07;;;;;;;19.03;68.75;94855.88;4163868;28;20057;-70
2023/09/25 05:56:44;;;;;;;13.65;11.07;;;;;;;19.17;68.42;94854.03;4168641;28;20084;-71
2023/09/25 05:58:47;;;;;;;15.57;11.73;;;;;;;19.23;68.57;94843.38;4158452;28;20077;-71
2023/09/25 06:00:50;;;;;;;15.70;11.75;;;;;;;19.29;68.30;94852.31;4173713;28;20573;-74
2023/09/25 06:02:52;;;;;;;15.65;11.85;;;;;;;19.41;68.13;94852.50;4167273;28;20065;-71
2023/09/25 06:04:54;;;;;;;20.88;11.68;;;;;;;19.49;67.76;94862.91;4175198;28;20055;-71
2023/09/25 06:06:56;;;;;;;16.52;12.45;;;;;;;19.52;67.75;94862.47;4174744;28;20053;-70
2023/09/25 06:09:00;;;;;;;17.15;12.23;;;;;;;19.71;67.31;94860.00;4172681;28;20053;-70
2023/09/25 06:11:02;;;;;;;13.77;11.70;;;;;;;19.79;66.99;94863.22;4167150;28;20060;-70
2023/09/25 06:13:04;;;;;;;20.83;13.03;;;;;;;20.00;66.74;94863.91;4165140;28;20408;-70
2023/09/25 06:15:09;;;;;;;22.95;12.52;;;;;;;20.12;66.18;94862.19;4174570;28;20048;-70
2023/09/25 06:17:15;;;;;;;22.10;13.32;;;;;;;20.28;65.74;94862.72;4173696;28;21340;-70
2023/09/25 06:19:20;;;;;;;21.95;12.40;;;;;;;20.31;65.95;94857.78;4155744;28;20132;-71
2023/09/25 06:21:22;;;;;;;26.77;13.10;;;;;;;20.44;65.47;94860.34;4166747;28;20049;-70
2023/09/25 06:23:24;;;;;;;16.90;13.00;;;;;;;20.45;65.19;94861.16;4178545;28;20059;-69
2023/09/25 06:25:29;;;;;;;20.88;12.60;;;;;;;20.54;65.15;94859.03;4163583;28;20054;-70
2023/09/25 06:27:32;;;;;;;21.40;13.35;;;;;;;20.56;64.80;94864.97;4155706;28;20538;-72
2023/09/25 06:29:35;;;;;;;18.75;13.98;;;;;;;20.59;64.71;94860.06;4162127;28;20408;-70
2023/09/25 06:31:37;;;;;;;16.52;12.70;;;;;;;20.62;64.90;94870.25;4164328;28;20479;-71
2023/09/25 06:33:58;;;;;;;20.88;14.38;;;;;;;20.50;65.03;94876.47;4157874;28;20054;-69
2023/09/25 06:36:01;;;;;;;26.03;13.10;;;;;;;20.50;65.01;94879.13;4161053;28;20123;-70
2023/09/25 06:38:03;;;;;;;15.98;12.77;;;;;;;20.58;65.04;94878.91;4132526;28;20311;-72
2023/09/25 06:40:09;;;;;;;16.23;13.25;;;;;;;20.71;64.78;94876.13;4155939;28;20132;-69
2023/09/25 06:42:12;;;;;;;17.13;13.40;;;;;;;20.81;64.34;94886.28;4159374;28;20061;-72
2023/09/25 06:44:14;;;;;;;17.42;13.40;;;;;;;20.82;64.27;94891.41;4154918;28;20053;-72
2023/09/25 06:46:16;;;;;;;20.65;14.45;;;;;;;20.93;64.24;94886.38;4165711;28;20507;-72
2023/09/25 06:48:18;;;;;;;17.33;13.00;;;;;;;21.03;64.15;94894.69;4160926;28;20111;-71
2023/09/25 06:50:23;;;;;;;18.65;13.90;;;;;;;21.14;63.84;94896.63;4161220;28;20052;-70
2023/09/25 06:52:27;;;;;;;16.55;13.63;;;;;;;20.97;63.74;94898.22;4168638;28;20049;-71
2023/09/25 06:54:30;;;;;;;25.05;13.57;;;;;;;20.94;63.94;94893.34;4155400;28;20055;-72
2023/09/25 06:56:32;;;;;;;21.73;14.52;;;;;;;21.07;64.01;94898.56;4169154;28;20048;-70
2023/09/25 06:58:34;;;;;;;26.80;15.52;;;;;;;21.23;63.20;94895.34;4150546;28;20075;-71
2023/09/25 07:00:36;;;;;;;21.65;15.25;;;;;;;21.34;63.04;94895.63;4165865;28;20049;-71
2023/09/25 07:02:56;;;;;;;22.05;15.13;;;;;;;21.55;62.63;94897.06;4166030;28;20136;-73
2023/09/25 07:04:59;;;;;;;22.10;14.85;;;;;;;21.66;61.99;94904.31;4158711;28;20475;-71
2023/09/25 07:07:03;;;;;;;24.65;15.68;;;;;;;21.56;61.66;94888.84;4162137;28;20061;-69
2023/09/25 07:09:09;;;;;;;24.20;15.35;;;;;;;21.67;62.10;94901.44;4170380;28;20052;-70
2023/09/25 07:11:10;;;;;;;33.20;18.33;;;;;;;21.94;61.11;94895.78;4156917;28;20516;-70
2023/09/25 07:13:18;;;;;;;17.98;14.45;;;;;;;22.05;60.42;94897.69;4163102;28;20104;-70
2023/09/25 07:15:20;;;;;;;19.42;14.55;;;;;;;22.07;60.61;94900.16;4156545;28;20129;-69
2023/09/25 07:17:22;;;;;;;19.17;16.02;;;;;;;22.24;59.79;94898.50;4160754;28;20045;-70
2023/09/25 07:19:24;;;;;;;20.13;15.25;;;;;;;22.49;59.72;94901.00;4162533;28;20050;-67
2023/09/25 07:21:26;;;;;;;21.15;16.05;;;;;;;22.56;58.36;94892.88;4162203;28;20448;-72
2023/09/25 07:23:29;;;;;;;24.65;18.55;;;;;;;22.62;58.22;94891.97;4172740;28;20071;-72
2023/09/25 07:25:31;;;;;;;21.02;14.15;;;;;;;22.76;57.17;94897.94;4161413;28;20052;-70
2023/09/25 07:27:33;;;;;;;19.70;13.35;;;;;;;22.88;56.36;94893.38;4163551;28;20496;-69
2023/09/25 07:29:36;;;;;;;15.90;13.10;;;;;;;23.06;55.90;94899.72;4161976;28;20096;-70
2023/09/25 07:31:43;;;;;;;19.25;13.63;;;;;;;23.12;55.61;94898.78;4162939;28;20108;-71
2023/09/25 07:33:45;;;;;;;18.75;13.10;;;;;;;23.13;54.24;94895.06;4162097;28;20500;-72
2023/09/25 07:35:48;;;;;;;18.92;13.98;;;;;;;23.15;53.58;94900.19;4160045;28;20073;-70
2023/09/25 07:37:50;;;;;;;19.75;13.93;;;;;;;22.73;53.78;94902.91;4166121;28;20080;-70
2023/09/25 07:39:52;;;;;;;20.77;14.00;;;;;;;22.64;54.89;94902.44;4168546;28;21210;-69
2023/09/25 07:41:54;;;;;;;16.88;14.32;;;;;;;22.80;54.55;94898.25;4167837;28;20636;-73
2023/09/25 07:43:59;;;;;;;21.90;14.70;;;;;;;22.80;54.67;94904.44;4141425;28;20504;-71
2023/09/25 07:46:02;;;;;;;17.73;13.98;;;;;;;22.84;54.66;94908.28;4163457;28;20546;-72
2023/09/25 07:48:06;;;;;;;17.42;14.60;;;;;;;22.85;55.12;94907.22;4164736;28;20136;-70
2023/09/25 07:50:10;;;;;;;16.58;13.95;;;;;;;22.92;54.97;94906.31;4159479;28;20057;-70
2023/09/25 07:52:15;;;;;;;15.88;14.10;;;;;;;22.83;54.35;94908.50;4161312;28;20446;-73
2023/09/25 07:54:19;;;;;;;16.63;13.45;;;;;;;22.82;53.51;94913.03;4168097;28;20053;-70
2023/09/25 07:56:20;;;;;;;13.88;12.35;;;;;;;22.51;53.41;94911.44;4161777;28;20046;-74
2023/09/25 07:58:27;;;;;;;20.17;13.80;;;;;;;22.59;53.78;94913.78;4160373;28;20060;-72
2023/09/25 08:00:37;;;;;;;16.48;12.57;;;;;;;22.59;53.72;94907.66;4158336;28;20050;-72
2023/09/25 08:02:47;;;;;;;14.50;12.98;;;;;;;22.70;53.40;94914.88;4154700;28;20053;-73
2023/09/25 08:04:50;;;;;;;15.82;13.23;;;;;;;22.90;53.38;94911.88;4149417;28;20087;-72
2023/09/25 08:06:52;;;;;;;24.25;13.10;;;;;;;22.91;53.32;94900.16;4162464;28;20050;-72
2023/09/25 08:08:57;;;;;;;17.88;13.43;;;;;;;22.98;53.38;94906.19;4161978;28;20057;-70
2023/09/25 08:10:59;;;;;;;16.15;11.57;;;;;;;22.98;52.31;94900.03;4164007;28;20056;-72
2023/09/25 08:13:00;;;;;;;14.25;11.02;;;;;;;23.10;51.90;94904.38;4160455;28;20054;-70
2023/09/25 08:15:03;;;;;;;13.82;9.85;;;;;;;23.20;51.17;94898.44;4172968;28;20114;-70
2023/09/25 08:17:11;;;;;;;11.93;8.63;;;;;;;23.11;50.10;94894.50;4172963;28;20049;-73
2023/09/25 08:19:17;;;;;;;10.85;7.18;;;;;;;23.08;50.28;94895.78;4162192;28;20060;-68
2023/09/25 08:21:24;;;;;;;10.35;7.20;;;;;;;22.89;50.71;94891.56;4165760;28;20057;-70
2023/09/25 08:23:27;;;;;;;13.60;9.35;;;;;;;22.67;51.55;94892.13;4170297;28;20128;-71
2023/09/25 08:25:30;;;;;;;11.55;8.50;;;;;;;22.70;52.24;94888.16;4163253;28;20060;-71
2023/09/25 08:27:32;;;;;;;10.60;8.55;;;;;;;22.67;51.97;94892.13;4154732;28;20053;-70
2023/09/25 08:29:35;;;;;;;12.20;8.48;;;;;;;22.80;51.84;94891.09;4164294;28;20056;-72
2023/09/25 08:31:37;;;;;;;10.05;7.40;;;;;;;22.95;50.96;94897.81;4154851;28;20053;-70
2023/09/25 08:33:40;;;;;;;10.95;8.27;;;;;;;23.04;50.71;94893.81;4162389;28;20057;-72
2023/09/25 08:35:43;;;;;;;14.95;8.68;;;;;;;23.02;50.22;94898.56;4154749;28;20046;-69
2023/09/25 08:37:45;;;;;;;9.65;7.25;;;;;;;22.96;49.90;94894.91;4160853;28;20049;-70
2023/09/25 08:39:48;;;;;;;9.55;6.65;;;;;;;23.14;49.68;94894.03;4165174;28;20052;-70
2023/09/25 08:41:50;;;;;;;10.32;7.35;;;;;;;23.26;50.02;94892.16;4157027;28;20076;-69
2023/09/25 08:43:52;;;;;;;9.45;6.75;;;;;;;23.44;50.05;94898.41;4163433;28;20045;-70
2023/09/25 08:46:01;;;;;;;15.15;7.88;;;;;;;23.43;50.17;94881.56;4161944;28;20046;-72
2023/09/25 08:48:04;;;;;;;13.35;8.05;;;;;;;23.60;49.88;94892.38;4161027;28;20068;-70
2023/09/25 08:50:08;;;;;;;11.10;7.93;;;;;;;23.70;49.70;94895.25;4161126;28;20480;-75
2023/09/25 08:52:13;;;;;;;9.85;7.28;;;;;;;23.74;49.93;94895.56;4165184;28;20116;-74
2023/09/25 08:54:15;;;;;;;9.13;7.03;;;;;;;23.75;49.39;94894.53;4165231;28;20397;-72
2023/09/25 08:56:17;;;;;;;8.57;6.88;;;;;;;23.64;49.40;94890.84;4165027;28;20381;-72
2023/09/25 08:58:19;;;;;;;8.13;6.22;;;;;;;23.66;48.98;94883.41;4168545;28;20575;-72
2023/09/25 09:00:23;;;;;;;8.55;6.18;;;;;;;23.80;49.14;94891.19;4159058;28;20054;-70
2023/09/25 09:02:25;;;;;;;7.68;5.47;;;;;;;23.64;48.65;94893.53;4165242;28;20053;-72
2023/09/25 09:04:35;;;;;;;8.40;5.35;;;;;;;23.78;48.32;94893.28;4162371;28;20041;-73
2023/09/25 09:06:37;;;;;;;9.48;5.57;;;;;;;23.75;48.54;94889.19;4156294;28;20495;-71
2023/09/25 09:08:46;;;;;;;6.63;5.43;;;;;;;23.68;48.40;94893.84;4152603;28;20053;-70
2023/09/25 09:10:48;;;;;;;10.98;5.40;;;;;;;23.62;48.70;94895.63;4165119;28;20045;-73
2023/09/25 09:12:54;;;;;;;10.75;4.97;;;;;;;23.49;48.55;94896.69;4159591;28;20053;-70
2023/09/25 09:15:04;;;;;;;7.47;5.28;;;;;;;23.46;48.75;94893.66;4155243;28;20045;-72
2023/09/25 09:17:09;;;;;;;9.25;5.95;;;;;;;23.44;49.12;94893.06;4161789;28;20104;-72
2023/09/25 09:19:12;;;;;;;9.98;6.90;;;;;;;23.28;49.54;94884.72;4139565;28;20049;-71
2023/09/25 09:21:27;;;;;;;14.27;6.80;;;;;;;23.19;50.01;94896.81;4168549;28;20505;-72
2023/09/25 09:23:42;;;;;;;15.48;6.30;;;;;;;23.21;49.85;94894.72;4172959;28;20443;-70
2023/09/25 09:25:46;;;;;;;7.30;4.78;;;;;;;23.12;49.85;94896.09;4175739;28;20072;-71
2023/09/25 09:27:48;;;;;;;14.13;5.70;;;;;;;23.10;50.27;94892.84;4167027;28;20068;-71
2023/09/25 09:29:52;;;;;;;9.95;6.82;;;;;;;23.10;50.11;94892.84;4157755;28;20432;-70
2023/09/25 09:31:56;;;;;;;11.07;5.40;;;;;;;23.17;49.68;94893.56;4167009;28;20049;-71